PWSweather.com
Personal Weather Stations
Station Observations
WISCHPK61
Green Bay Schmitt Park, Green Bay, WI 54311

Green Bay Schmitt ParkGreen Bay, WI 54311

Lat: 44.514277, Lon: -87.935067

Elevation: 735

Station Type: Acu Rite Pro Weather Center model 02032C

http://greenbayweathercam.com

High Low Average
Temperature 44.6°F7.0°C 16.5°F-8.6°C 27.3°F-2.6°C
Dew Point 26.8°F-2.9°C 5.5°F-14.7°C 19.7°F-6.8°C
Winds 3.5 mph 5.6 kmh Calm Calm 1.0 mph SSW1.6 kmh SSW
Wind Gusts 4.6 mph7.4 kmh -- 1.0 mph1.6 kmh
Humidity 98% 27% 77%
Pressure 29.52 in999.7 mb 29.36 in994.2 mb -
Precipitation 0.00 in0.0 mm - -
Hour Temp Dew Point Humidity Winds Wind Gusts Pressure Precip Precip Rate Daily Precip Total
12:00 AM 20.1°F-6.6°C 16.0°F-8.9°C 84% Calm Calm -- 29.40 in995.6 mb - 0.00 in0.0 mm 0.00 in0.0 mm
12:15 AM 19.9°F-6.7°C 15.8°F-9.0°C 84% Calm Calm -- 29.40 in995.6 mb - 0.00 in0.0 mm 0.00 in0.0 mm
12:30 AM 19.4°F-7.0°C 15.9°F-8.9°C 86% Calm Calm -- 29.40 in995.6 mb - 0.00 in0.0 mm 0.00 in0.0 mm
12:45 AM 19.2°F-7.1°C 15.7°F-9.1°C 86% Calm Calm -- 29.40 in995.6 mb - 0.00 in0.0 mm 0.00 in0.0 mm
01:00 AM 19.0°F-7.2°C 16.0°F-8.9°C 88% Calm Calm -- 29.41 in995.9 mb - 0.00 in0.0 mm 0.00 in0.0 mm
01:15 AM 19.0°F-7.2°C 16.0°F-8.9°C 88% Calm Calm -- 29.41 in995.9 mb - 0.00 in0.0 mm 0.00 in0.0 mm
01:30 AM 19.2°F-7.1°C 16.0°F-8.9°C 87% Calm Calm -- 29.42 in996.3 mb - 0.00 in0.0 mm 0.00 in0.0 mm
01:45 AM 19.2°F-7.1°C 16.0°F-8.9°C 87% Calm Calm -- 29.42 in996.3 mb - 0.00 in0.0 mm 0.00 in0.0 mm
02:00 AM 19.2°F-7.1°C 16.0°F-8.9°C 87% Calm Calm -- 29.43 in996.6 mb - 0.00 in0.0 mm 0.00 in0.0 mm
02:15 AM 19.0°F-7.2°C 15.8°F-9.0°C 87% Calm Calm -- 29.43 in996.6 mb - 0.00 in0.0 mm 0.00 in0.0 mm
02:30 AM 19.0°F-7.2°C 16.0°F-8.9°C 88% Calm Calm -- 29.43 in996.6 mb - 0.00 in0.0 mm 0.00 in0.0 mm
02:45 AM 18.9°F-7.3°C 15.9°F-8.9°C 88% Calm Calm -- 29.43 in996.6 mb - 0.00 in0.0 mm 0.00 in0.0 mm
03:00 AM 18.5°F-7.5°C 15.5°F-9.2°C 88% Calm Calm -- 29.44 in997.0 mb - 0.00 in0.0 mm 0.00 in0.0 mm
03:15 AM 18.5°F-7.5°C 15.8°F-9.0°C 89% Calm Calm -- 29.44 in997.0 mb - 0.00 in0.0 mm 0.00 in0.0 mm
03:30 AM 18.3°F-7.6°C 15.8°F-9.0°C 90% Calm Calm -- 29.44 in997.0 mb - 0.00 in0.0 mm 0.00 in0.0 mm
03:45 AM 18.0°F-7.8°C 15.8°F-9.0°C 91% Calm Calm -- 29.45 in997.3 mb - 0.00 in0.0 mm 0.00 in0.0 mm
04:00 AM 17.8°F-7.9°C 15.9°F-8.9°C 92% Calm Calm -- 29.45 in997.3 mb - 0.00 in0.0 mm 0.00 in0.0 mm
04:15 AM 17.8°F-7.9°C 16.1°F-8.8°C 93% Calm Calm -- 29.45 in997.3 mb - 0.00 in0.0 mm 0.00 in0.0 mm
04:30 AM 17.4°F-8.1°C 15.7°F-9.1°C 93% Calm Calm -- 29.46 in997.6 mb - 0.00 in0.0 mm 0.00 in0.0 mm
04:45 AM 17.4°F-8.1°C 15.7°F-9.1°C 93% Calm Calm -- 29.46 in997.6 mb - 0.00 in0.0 mm 0.00 in0.0 mm
05:00 AM 17.4°F-8.1°C 16.0°F-8.9°C 94% Calm Calm -- 29.46 in997.6 mb - 0.00 in0.0 mm 0.00 in0.0 mm
05:15 AM 17.2°F-8.2°C 15.8°F-9.0°C 94% Calm Calm -- 29.46 in997.6 mb - 0.00 in0.0 mm 0.00 in0.0 mm
05:30 AM 17.2°F-8.2°C 15.8°F-9.0°C 94% Calm Calm -- 29.46 in997.6 mb - 0.00 in0.0 mm 0.00 in0.0 mm
05:45 AM 17.2°F-8.2°C 16.0°F-8.9°C 95% Calm Calm -- 29.47 in998.0 mb - 0.00 in0.0 mm 0.00 in0.0 mm
06:00 AM 17.2°F-8.2°C 16.0°F-8.9°C 95% Calm Calm -- 29.47 in998.0 mb - 0.00 in0.0 mm 0.00 in0.0 mm
06:15 AM 17.1°F-8.3°C 15.9°F-8.9°C 95% Calm Calm -- 29.47 in998.0 mb - 0.00 in0.0 mm 0.00 in0.0 mm
06:30 AM 16.9°F-8.4°C 15.7°F-9.1°C 95% Calm Calm -- 29.47 in998.0 mb - 0.00 in0.0 mm 0.00 in0.0 mm
06:45 AM 16.7°F-8.5°C 15.5°F-9.2°C 95% Calm Calm -- 29.48 in998.3 mb - 0.00 in0.0 mm 0.00 in0.0 mm
07:00 AM 16.5°F-8.6°C 15.6°F-9.1°C 96% Calm Calm -- 29.48 in998.3 mb - 0.00 in0.0 mm 0.00 in0.0 mm
07:15 AM 16.5°F-8.6°C 15.6°F-9.1°C 96% Calm Calm -- 29.48 in998.3 mb - 0.00 in0.0 mm 0.00 in0.0 mm
07:30 AM 16.5°F-8.6°C 15.6°F-9.1°C 96% Calm Calm -- 29.49 in998.6 mb - 0.00 in0.0 mm 0.00 in0.0 mm
07:45 AM 16.7°F-8.5°C 15.8°F-9.0°C 96% Calm Calm -- 29.49 in998.6 mb - 0.00 in0.0 mm 0.00 in0.0 mm
08:00 AM 16.9°F-8.4°C 16.2°F-8.8°C 97% Calm Calm -- 29.49 in998.6 mb - 0.00 in0.0 mm 0.00 in0.0 mm
08:15 AM 18.0°F-7.8°C 16.8°F-8.4°C 95% Calm Calm -- 29.49 in998.6 mb - 0.00 in0.0 mm 0.00 in0.0 mm
08:30 AM 19.2°F-7.1°C 17.5°F-8.1°C 93% Calm Calm -- 29.49 in998.6 mb - 0.00 in0.0 mm 0.00 in0.0 mm
08:45 AM 21.4°F-5.9°C 18.1°F-7.7°C 87% Calm Calm -- 29.49 in998.6 mb - 0.00 in0.0 mm 0.00 in0.0 mm
09:00 AM 23.7°F-4.6°C 19.3°F-7.1°C 83% 1.2 mph NNW1.9 kmh NNW 1.2 mph1.9 kmh 29.49 in998.6 mb - 0.00 in0.0 mm 0.00 in0.0 mm
09:15 AM 24.0°F-4.4°C 19.0°F-7.2°C 81% 1.2 mph NW1.9 kmh NW 3.5 mph5.6 kmh 29.50 in999.0 mb - 0.00 in0.0 mm 0.00 in0.0 mm
09:30 AM 25.7°F-3.5°C 19.8°F-6.8°C 78% Calm Calm -- 29.50 in999.0 mb - 0.00 in0.0 mm 0.00 in0.0 mm
09:45 AM 28.0°F-2.2°C 20.8°F-6.2°C 74% 1.2 mph NNW1.9 kmh NNW 2.3 mph3.7 kmh 29.50 in999.0 mb - 0.00 in0.0 mm 0.00 in0.0 mm
10:00 AM 27.8°F-2.3°C 20.6°F-6.3°C 74% 1.2 mph NNW1.9 kmh NNW 2.3 mph3.7 kmh 29.50 in999.0 mb - 0.00 in0.0 mm 0.00 in0.0 mm
10:15 AM 28.6°F-1.9°C 21.0°F-6.1°C 73% 1.2 mph NW1.9 kmh NW 2.3 mph3.7 kmh 29.51 in999.3 mb - 0.00 in0.0 mm 0.00 in0.0 mm
10:30 AM 28.6°F-1.9°C 20.7°F-6.3°C 72% 1.2 mph N1.9 kmh N 2.3 mph3.7 kmh 29.51 in999.3 mb - 0.00 in0.0 mm 0.00 in0.0 mm
10:45 AM 28.8°F-1.8°C 21.9°F-5.6°C 75% 2.3 mph N3.7 kmh N 3.5 mph5.6 kmh 29.51 in999.3 mb - 0.00 in0.0 mm 0.00 in0.0 mm
11:00 AM 30.1°F-1.1°C 22.2°F-5.4°C 72% Calm Calm -- 29.52 in999.7 mb - 0.00 in0.0 mm 0.00 in0.0 mm
11:15 AM 30.7°F-0.7°C 22.7°F-5.2°C 72% 2.3 mph N3.7 kmh N 2.3 mph3.7 kmh 29.52 in999.7 mb - 0.00 in0.0 mm 0.00 in0.0 mm
11:30 AM 32.2°F0.1°C 22.8°F-5.1°C 68% 2.3 mph NW3.7 kmh NW 3.5 mph5.6 kmh 29.52 in999.7 mb - 0.00 in0.0 mm 0.00 in0.0 mm
11:45 AM 32.7°F0.4°C 23.3°F-4.8°C 68% 2.3 mph NNW3.7 kmh NNW 2.3 mph3.7 kmh 29.52 in999.7 mb - 0.00 in0.0 mm 0.00 in0.0 mm
12:00 PM 33.1°F0.6°C 23.0°F-5.0°C 66% 2.3 mph WNW3.7 kmh WNW 2.3 mph3.7 kmh 29.52 in999.7 mb - 0.00 in0.0 mm 0.00 in0.0 mm
12:30 PM 36.0°F2.2°C 24.6°F-4.1°C 63% 2.3 mph SSW3.7 kmh SSW 2.3 mph3.7 kmh 29.51 in999.3 mb - 0.00 in0.0 mm 0.00 in0.0 mm
12:45 PM 37.1°F2.8°C 25.3°F-3.7°C 62% Calm Calm -- 29.50 in999.0 mb - 0.00 in0.0 mm 0.00 in0.0 mm
01:00 PM 39.2°F4.0°C 25.6°F-3.6°C 58% 1.2 mph NW1.9 kmh NW 3.5 mph5.6 kmh 29.50 in999.0 mb - 0.00 in0.0 mm 0.00 in0.0 mm
01:15 PM 40.3°F4.6°C 26.7°F-2.9°C 58% 2.3 mph N3.7 kmh N 2.3 mph3.7 kmh 29.49 in998.6 mb - 0.00 in0.0 mm 0.00 in0.0 mm
01:30 PM 41.4°F5.2°C 26.4°F-3.1°C 55% 3.5 mph NW5.6 kmh NW 4.6 mph7.4 kmh 29.49 in998.6 mb - 0.00 in0.0 mm 0.00 in0.0 mm
01:45 PM 41.0°F5.0°C 26.1°F-3.3°C 55% 2.3 mph NNW3.7 kmh NNW 3.5 mph5.6 kmh 29.48 in998.3 mb - 0.00 in0.0 mm 0.00 in0.0 mm
02:00 PM 41.2°F5.1°C 25.8°F-3.4°C 54% 2.3 mph NW3.7 kmh NW 2.3 mph3.7 kmh 29.48 in998.3 mb - 0.00 in0.0 mm 0.00 in0.0 mm
02:15 PM 42.4°F5.8°C 26.0°F-3.3°C 52% 3.5 mph W5.6 kmh W 3.5 mph5.6 kmh 29.47 in998.0 mb - 0.00 in0.0 mm 0.00 in0.0 mm
02:30 PM 42.1°F5.6°C 26.2°F-3.2°C 53% 3.5 mph NNE5.6 kmh NNE 4.6 mph7.4 kmh 29.46 in997.6 mb - 0.00 in0.0 mm 0.00 in0.0 mm
02:45 PM 43.9°F6.6°C 25.4°F-3.7°C 48% 2.3 mph S3.7 kmh S 2.3 mph3.7 kmh 29.46 in997.6 mb - 0.00 in0.0 mm 0.00 in0.0 mm
03:00 PM 44.6°F7.0°C 24.0°F-4.4°C 44% 2.3 mph W3.7 kmh W 2.3 mph3.7 kmh 29.45 in997.3 mb - 0.00 in0.0 mm 0.00 in0.0 mm
03:15 PM 44.0°F6.7°C 25.0°F-3.9°C 47% 2.3 mph SSW3.7 kmh SSW 2.3 mph3.7 kmh 29.44 in997.0 mb - 0.00 in0.0 mm 0.00 in0.0 mm
03:30 PM 43.9°F6.6°C 22.8°F-5.1°C 43% 2.3 mph NW3.7 kmh NW 2.3 mph3.7 kmh 29.44 in997.0 mb - 0.00 in0.0 mm 0.00 in0.0 mm
03:45 PM 39.3°F4.1°C 19.2°F-7.1°C 44% 2.3 mph WSW3.7 kmh WSW 1.2 mph1.9 kmh 29.43 in996.6 mb - 0.00 in0.0 mm 0.00 in0.0 mm
04:00 PM 37.7°F3.2°C 18.2°F-7.7°C 45% 2.3 mph NW3.7 kmh NW 2.3 mph3.7 kmh 29.43 in996.6 mb - 0.00 in0.0 mm 0.00 in0.0 mm
04:15 PM 37.9°F3.3°C 15.7°F-9.1°C 40% 2.3 mph WNW3.7 kmh WNW 2.3 mph3.7 kmh 29.43 in996.6 mb - 0.00 in0.0 mm 0.00 in0.0 mm
04:30 PM 38.7°F3.7°C 9.1°F-12.7°C 29% 2.3 mph NW3.7 kmh NW 3.5 mph5.6 kmh 29.43 in996.6 mb - 0.00 in0.0 mm 0.00 in0.0 mm
04:45 PM 37.2°F2.9°C 9.3°F-12.6°C 31% Calm Calm -- 29.43 in996.6 mb - 0.00 in0.0 mm 0.00 in0.0 mm
05:00 PM 36.3°F2.4°C 5.5°F-14.7°C 27% 1.2 mph SE1.9 kmh SE 1.2 mph1.9 kmh 29.42 in996.3 mb - 0.00 in0.0 mm 0.00 in0.0 mm
05:15 PM 35.6°F2.0°C 7.9°F-13.4°C 31% Calm Calm -- 29.42 in996.3 mb - 0.00 in0.0 mm 0.00 in0.0 mm
05:30 PM 35.1°F1.7°C 10.2°F-12.1°C 35% Calm Calm -- 29.42 in996.3 mb - 0.00 in0.0 mm 0.00 in0.0 mm
05:45 PM 34.3°F1.3°C 11.3°F-11.5°C 38% Calm Calm -- 29.41 in995.9 mb - 0.00 in0.0 mm 0.00 in0.0 mm
06:00 PM 33.8°F1.0°C 11.4°F-11.4°C 39% Calm Calm -- 29.41 in995.9 mb - 0.00 in0.0 mm 0.00 in0.0 mm
06:15 PM 33.1°F0.6°C 12.5°F-10.8°C 42% Calm Calm -- 29.40 in995.6 mb - 0.00 in0.0 mm 0.00 in0.0 mm
06:30 PM 32.5°F0.3°C 13.5°F-10.3°C 45% Calm Calm -- 29.40 in995.6 mb - 0.00 in0.0 mm 0.00 in0.0 mm
06:45 PM 31.9°F-0.1°C 16.3°F-8.7°C 52% Calm Calm -- 29.39 in995.3 mb - 0.00 in0.0 mm 0.00 in0.0 mm
07:00 PM 31.1°F-0.5°C 19.2°F-7.1°C 61% Calm Calm -- 29.39 in995.3 mb - 0.00 in0.0 mm 0.00 in0.0 mm
07:15 PM 30.7°F-0.7°C 23.7°F-4.6°C 75% 1.2 mph S1.9 kmh S 1.2 mph1.9 kmh 29.39 in995.3 mb - 0.00 in0.0 mm 0.00 in0.0 mm
07:30 PM 30.2°F-1.0°C 26.5°F-3.1°C 86% 1.2 mph S1.9 kmh S 2.3 mph3.7 kmh 29.38 in994.9 mb - 0.00 in0.0 mm 0.00 in0.0 mm
07:45 PM 29.7°F-1.3°C 26.8°F-2.9°C 89% Calm Calm 2.3 mph3.7 kmh 29.38 in994.9 mb - 0.00 in0.0 mm 0.00 in0.0 mm
08:00 PM 29.1°F-1.6°C 26.8°F-2.9°C 91% 1.2 mph S1.9 kmh S 2.3 mph3.7 kmh 29.38 in994.9 mb - 0.00 in0.0 mm 0.00 in0.0 mm
08:15 PM 28.8°F-1.8°C 26.8°F-2.9°C 92% 1.2 mph SSE1.9 kmh SSE 2.3 mph3.7 kmh 29.38 in994.9 mb - 0.00 in0.0 mm 0.00 in0.0 mm
08:30 PM 28.2°F-2.1°C 26.2°F-3.2°C 92% Calm Calm -- 29.37 in994.6 mb - 0.00 in0.0 mm 0.00 in0.0 mm
08:45 PM 27.7°F-2.4°C 25.9°F-3.4°C 93% Calm Calm -- 29.37 in994.6 mb - 0.00 in0.0 mm 0.00 in0.0 mm
09:00 PM 27.5°F-2.5°C 26.0°F-3.3°C 94% 1.2 mph SSE1.9 kmh SSE 1.2 mph1.9 kmh 29.37 in994.6 mb - 0.00 in0.0 mm 0.00 in0.0 mm
09:15 PM 27.1°F-2.7°C 25.9°F-3.4°C 95% Calm Calm -- 29.37 in994.6 mb - 0.00 in0.0 mm 0.00 in0.0 mm
09:30 PM 26.8°F-2.9°C 25.8°F-3.4°C 96% Calm Calm -- 29.37 in994.6 mb - 0.00 in0.0 mm 0.00 in0.0 mm
09:45 PM 26.2°F-3.2°C 25.2°F-3.8°C 96% Calm Calm -- 29.37 in994.6 mb - 0.00 in0.0 mm 0.00 in0.0 mm
10:00 PM 26.1°F-3.3°C 25.4°F-3.7°C 97% Calm Calm -- 29.37 in994.6 mb - 0.00 in0.0 mm 0.00 in0.0 mm
10:15 PM 25.9°F-3.4°C 25.2°F-3.8°C 97% Calm Calm -- 29.38 in994.9 mb - 0.00 in0.0 mm 0.00 in0.0 mm
10:30 PM 25.5°F-3.6°C 24.8°F-4.0°C 97% Calm Calm -- 29.37 in994.6 mb - 0.00 in0.0 mm 0.00 in0.0 mm
10:45 PM 25.2°F-3.8°C 24.5°F-4.2°C 97% Calm Calm -- 29.38 in994.9 mb - 0.00 in0.0 mm 0.00 in0.0 mm
11:00 PM 25.0°F-3.9°C 24.5°F-4.2°C 98% Calm Calm -- 29.38 in994.9 mb - 0.00 in0.0 mm 0.00 in0.0 mm
11:15 PM 24.7°F-4.1°C 24.2°F-4.3°C 98% Calm Calm -- 29.37 in994.6 mb - 0.00 in0.0 mm 0.00 in0.0 mm
11:30 PM 24.4°F-4.2°C 23.9°F-4.5°C 98% Calm Calm -- 29.36 in994.2 mb - 0.00 in0.0 mm 0.00 in0.0 mm
11:45 PM 24.3°F-4.3°C 23.8°F-4.6°C 98% Calm Calm -- 29.36 in994.2 mb - 0.00 in0.0 mm 0.00 in0.0 mm